sensor_id;sensor_type;location;lat;lon;timestamp;pressure;altitude;pressure_sealevel;temperature;humidity
79612;BME280;69094;48.154;11.536;2024-01-15T00:01:14;94191.06;;;-0.45;76.64
79612;BME280;69094;48.154;11.536;2024-01-15T00:03:39;94179.28;;;-0.44;76.28
79612;BME280;69094;48.154;11.536;2024-01-15T00:06:04;94175.75;;;-0.39;76.35
79612;BME280;69094;48.154;11.536;2024-01-15T00:08:30;94181.09;;;-0.39;76.38
79612;BME280;69094;48.154;11.536;2024-01-15T00:10:55;94186.72;;;-0.41;76.83
79612;BME280;69094;48.154;11.536;2024-01-15T00:13:21;94188.69;;;-0.47;77.15
79612;BME280;69094;48.154;11.536;2024-01-15T00:15:46;94197.31;;;-0.55;76.94
79612;BME280;69094;48.154;11.536;2024-01-15T00:18:11;94196.84;;;-0.57;77.50
79612;BME280;69094;48.154;11.536;2024-01-15T00:20:37;94193.06;;;-0.56;77.66
79612;BME280;69094;48.154;11.536;2024-01-15T00:23:02;94210.56;;;-0.63;77.96
79612;BME280;69094;48.154;11.536;2024-01-15T00:25:28;94208.81;;;-0.73;77.99
79612;BME280;69094;48.154;11.536;2024-01-15T00:27:53;94206.41;;;-0.75;77.83
79612;BME280;69094;48.154;11.536;2024-01-15T00:30:18;94208.81;;;-0.73;77.79
79612;BME280;69094;48.154;11.536;2024-01-15T00:32:44;94204.56;;;-0.74;78.47
79612;BME280;69094;48.154;11.536;2024-01-15T00:35:09;94206.72;;;-0.76;78.01
79612;BME280;69094;48.154;11.536;2024-01-15T00:37:35;94217.66;;;-0.78;78.78
79612;BME280;69094;48.154;11.536;2024-01-15T00:40:00;94213.63;;;-0.75;77.92
79612;BME280;69094;48.154;11.536;2024-01-15T00:42:26;94214.94;;;-0.73;77.20
79612;BME280;69094;48.154;11.536;2024-01-15T00:44:51;94214.66;;;-0.71;77.25
79612;BME280;69094;48.154;11.536;2024-01-15T00:47:18;94229.84;;;-0.67;76.81
79612;BME280;69094;48.154;11.536;2024-01-15T00:49:43;94234.09;;;-0.66;76.50
79612;BME280;69094;48.154;11.536;2024-01-15T00:52:09;94235.50;;;-0.73;76.59
79612;BME280;69094;48.154;11.536;2024-01-15T00:54:34;94233.28;;;-0.66;76.56
79612;BME280;69094;48.154;11.536;2024-01-15T00:56:59;94239.56;;;-0.76;75.97
79612;BME280;69094;48.154;11.536;2024-01-15T00:59:25;94244.69;;;-0.79;75.94
79612;BME280;69094;48.154;11.536;2024-01-15T01:01:50;94255.25;;;-0.93;75.90
79612;BME280;69094;48.154;11.536;2024-01-15T01:04:16;94254.84;;;-1.05;74.98
79612;BME280;69094;48.154;11.536;2024-01-15T01:06:41;94259.16;;;-1.34;75.46
79612;BME280;69094;48.154;11.536;2024-01-15T01:09:06;94260.69;;;-1.27;74.61
79612;BME280;69094;48.154;11.536;2024-01-15T01:11:32;94252.22;;;-1.35;74.35
79612;BME280;69094;48.154;11.536;2024-01-15T01:13:57;94250.22;;;-1.48;74.54
79612;BME280;69094;48.154;11.536;2024-01-15T01:16:22;94250.53;;;-1.55;73.20
79612;BME280;69094;48.154;11.536;2024-01-15T01:18:48;94259.31;;;-1.54;72.88
79612;BME280;69094;48.154;11.536;2024-01-15T01:21:13;94248.47;;;-1.63;73.11
79612;BME280;69094;48.154;11.536;2024-01-15T01:23:39;94236.59;;;-1.76;72.43
79612;BME280;69094;48.154;11.536;2024-01-15T01:26:04;94250.97;;;-1.77;73.44
79612;BME280;69094;48.154;11.536;2024-01-15T01:28:29;94251.84;;;-1.81;73.08
79612;BME280;69094;48.154;11.536;2024-01-15T01:30:55;94251.63;;;-1.90;72.81
79612;BME280;69094;48.154;11.536;2024-01-15T01:33:20;94247.13;;;-1.95;72.46
79612;BME280;69094;48.154;11.536;2024-01-15T01:35:45;94250.28;;;-1.87;72.08
79612;BME280;69094;48.154;11.536;2024-01-15T01:38:12;94248.16;;;-1.90;71.86
79612;BME280;69094;48.154;11.536;2024-01-15T01:40:37;94253.72;;;-1.87;71.72
79612;BME280;69094;48.154;11.536;2024-01-15T01:43:04;94250.84;;;-1.90;71.65
79612;BME280;69094;48.154;11.536;2024-01-15T01:45:30;94241.78;;;-1.95;72.05
79612;BME280;69094;48.154;11.536;2024-01-15T01:47:55;94227.16;;;-1.97;71.46
79612;BME280;69094;48.154;11.536;2024-01-15T01:50:21;94243.63;;;-1.90;70.73
79612;BME280;69094;48.154;11.536;2024-01-15T01:52:47;94241.19;;;-1.86;70.50
79612;BME280;69094;48.154;11.536;2024-01-15T01:55:12;94238.81;;;-1.88;70.16
79612;BME280;69094;48.154;11.536;2024-01-15T01:57:38;94237.50;;;-1.90;70.38
79612;BME280;69094;48.154;11.536;2024-01-15T02:00:04;94238.28;;;-1.90;70.10
79612;BME280;69094;48.154;11.536;2024-01-15T02:02:30;94251.06;;;-1.87;70.10
79612;BME280;69094;48.154;11.536;2024-01-15T02:04:56;94251.63;;;-1.90;70.53
79612;BME280;69094;48.154;11.536;2024-01-15T02:07:22;94250.88;;;-1.96;70.48
79612;BME280;69094;48.154;11.536;2024-01-15T02:09:49;94235.97;;;-2.02;71.14
79612;BME280;69094;48.154;11.536;2024-01-15T02:12:14;94264.78;;;-1.99;71.12
79612;BME280;69094;48.154;11.536;2024-01-15T02:14:40;94260.00;;;-2.07;71.33
79612;BME280;69094;48.154;11.536;2024-01-15T02:17:06;94269.06;;;-2.03;71.29
79612;BME280;69094;48.154;11.536;2024-01-15T02:19:34;94256.59;;;-2.12;71.24
79612;BME280;69094;48.154;11.536;2024-01-15T02:21:59;94270.44;;;-2.10;70.94
79612;BME280;69094;48.154;11.536;2024-01-15T02:24:25;94265.09;;;-2.10;70.78
79612;BME280;69094;48.154;11.536;2024-01-15T02:26:50;94260.59;;;-2.15;70.33
79612;BME280;69094;48.154;11.536;2024-01-15T02:29:16;94266.75;;;-2.20;70.79
79612;BME280;69094;48.154;11.536;2024-01-15T02:31:41;94263.59;;;-2.27;70.80
79612;BME280;69094;48.154;11.536;2024-01-15T02:34:06;94266.28;;;-2.27;71.17
79612;BME280;69094;48.154;11.536;2024-01-15T02:36:32;94273.72;;;-2.24;71.15
79612;BME280;69094;48.154;11.536;2024-01-15T02:38:57;94288.16;;;-2.30;71.20
79612;BME280;69094;48.154;11.536;2024-01-15T02:41:22;94289.22;;;-2.31;70.59
79612;BME280;69094;48.154;11.536;2024-01-15T02:43:48;94290.28;;;-2.32;71.43
79612;BME280;69094;48.154;11.536;2024-01-15T02:46:13;94282.59;;;-2.33;71.57
79612;BME280;69094;48.154;11.536;2024-01-15T02:48:39;94281.25;;;-2.31;71.55
79612;BME280;69094;48.154;11.536;2024-01-15T02:51:04;94291.34;;;-2.28;71.79
79612;BME280;69094;48.154;11.536;2024-01-15T02:53:29;94280.66;;;-2.23;71.22
79612;BME280;69094;48.154;11.536;2024-01-15T02:55:55;94272.38;;;-2.26;71.62
79612;BME280;69094;48.154;11.536;2024-01-15T02:58:21;94289.72;;;-2.29;71.66
79612;BME280;69094;48.154;11.536;2024-01-15T03:00:46;94299.59;;;-2.29;72.56
79612;BME280;69094;48.154;11.536;2024-01-15T03:03:12;94300.69;;;-2.30;72.31
79612;BME280;69094;48.154;11.536;2024-01-15T03:05:38;94295.84;;;-2.23;71.74
79612;BME280;69094;48.154;11.536;2024-01-15T03:08:03;94284.38;;;-2.19;71.99
79612;BME280;69094;48.154;11.536;2024-01-15T03:10:29;94294.00;;;-2.28;72.26
79612;BME280;69094;48.154;11.536;2024-01-15T03:12:54;94285.22;;;-2.28;71.91
79612;BME280;69094;48.154;11.536;2024-01-15T03:15:20;94279.25;;;-2.15;71.37
79612;BME280;69094;48.154;11.536;2024-01-15T03:17:45;94287.81;;;-2.18;71.27
79612;BME280;69094;48.154;11.536;2024-01-15T03:20:11;94275.78;;;-2.10;71.42
79612;BME280;69094;48.154;11.536;2024-01-15T03:22:36;94281.63;;;-2.08;71.55
79612;BME280;69094;48.154;11.536;2024-01-15T03:25:02;94271.22;;;-2.10;71.04
79612;BME280;69094;48.154;11.536;2024-01-15T03:27:28;94272.66;;;-2.23;71.65
79612;BME280;69094;48.154;11.536;2024-01-15T03:29:54;94274.22;;;-2.22;71.53
79612;BME280;69094;48.154;11.536;2024-01-15T03:32:19;94258.53;;;-2.23;71.05
79612;BME280;69094;48.154;11.536;2024-01-15T03:34:45;94276.63;;;-2.20;71.28
79612;BME280;69094;48.154;11.536;2024-01-15T03:37:12;94287.00;;;-2.13;71.35
79612;BME280;69094;48.154;11.536;2024-01-15T03:39:37;94283.31;;;-2.23;71.02
79612;BME280;69094;48.154;11.536;2024-01-15T03:42:03;94279.03;;;-2.19;71.24
79612;BME280;69094;48.154;11.536;2024-01-15T03:44:29;94281.13;;;-2.15;71.06
79612;BME280;69094;48.154;11.536;2024-01-15T03:46:54;94295.59;;;-2.27;70.99
79612;BME280;69094;48.154;11.536;2024-01-15T03:49:19;94289.16;;;-2.21;71.54
79612;BME280;69094;48.154;11.536;2024-01-15T03:51:45;94278.78;;;-2.22;71.22
79612;BME280;69094;48.154;11.536;2024-01-15T03:54:10;94277.75;;;-2.31;71.62
79612;BME280;69094;48.154;11.536;2024-01-15T03:56:35;94262.59;;;-2.31;71.29
79612;BME280;69094;48.154;11.536;2024-01-15T03:59:01;94269.22;;;-2.28;70.85
79612;BME280;69094;48.154;11.536;2024-01-15T04:01:26;94266.22;;;-2.22;70.89
79612;BME280;69094;48.154;11.536;2024-01-15T04:03:51;94277.97;;;-2.23;70.93
79612;BME280;69094;48.154;11.536;2024-01-15T04:06:17;94266.31;;;-2.32;71.48
79612;BME280;69094;48.154;11.536;2024-01-15T04:08:42;94264.69;;;-2.28;70.75
79612;BME280;69094;48.154;11.536;2024-01-15T04:11:08;94267.91;;;-2.31;70.41
79612;BME280;69094;48.154;11.536;2024-01-15T04:13:33;94269.03;;;-2.42;71.21
79612;BME280;69094;48.154;11.536;2024-01-15T04:16:00;94259.91;;;-2.31;71.81
79612;BME280;69094;48.154;11.536;2024-01-15T04:18:25;94248.47;;;-2.36;71.63
79612;BME280;69094;48.154;11.536;2024-01-15T04:20:51;94256.94;;;-2.24;71.37
79612;BME280;69094;48.154;11.536;2024-01-15T04:23:16;94256.94;;;-2.24;71.67
79612;BME280;69094;48.154;11.536;2024-01-15T04:25:42;94246.78;;;-2.22;71.31
79612;BME280;69094;48.154;11.536;2024-01-15T04:28:10;94265.94;;;-2.15;70.30
79612;BME280;69094;48.154;11.536;2024-01-15T04:30:36;94268.38;;;-2.19;71.20
79612;BME280;69094;48.154;11.536;2024-01-15T04:33:01;94261.44;;;-2.20;71.25
79612;BME280;69094;48.154;11.536;2024-01-15T04:35:26;94270.72;;;-2.12;70.83
79612;BME280;69094;48.154;11.536;2024-01-15T04:37:52;94260.66;;;-2.20;71.00
79612;BME280;69094;48.154;11.536;2024-01-15T04:40:18;94266.69;;;-2.09;70.81
79612;BME280;69094;48.154;11.536;2024-01-15T04:42:43;94255.53;;;-2.17;71.15
79612;BME280;69094;48.154;11.536;2024-01-15T04:45:11;94266.72;;;-2.14;70.71
79612;BME280;69094;48.154;11.536;2024-01-15T04:47:36;94259.25;;;-2.12;71.11
79612;BME280;69094;48.154;11.536;2024-01-15T04:50:03;94261.34;;;-2.09;70.89
79612;BME280;69094;48.154;11.536;2024-01-15T04:52:28;94263.72;;;-2.03;70.69
79612;BME280;69094;48.154;11.536;2024-01-15T04:54:54;94264.50;;;-2.02;70.88
79612;BME280;69094;48.154;11.536;2024-01-15T04:57:19;94250.47;;;-2.13;70.88
79612;BME280;69094;48.154;11.536;2024-01-15T04:59:45;94254.75;;;-2.17;71.02
79612;BME280;69094;48.154;11.536;2024-01-15T05:02:10;94269.13;;;-2.13;71.26
79612;BME280;69094;48.154;11.536;2024-01-15T05:04:35;94271.50;;;-2.11;71.00
79612;BME280;69094;48.154;11.536;2024-01-15T05:07:01;94264.56;;;-2.07;70.73
79612;BME280;69094;48.154;11.536;2024-01-15T05:09:26;94253.97;;;-2.18;70.95
79612;BME280;69094;48.154;11.536;2024-01-15T05:11:51;94257.69;;;-2.13;70.97
79612;BME280;69094;48.154;11.536;2024-01-15T05:14:17;94257.38;;;-2.12;70.68
79612;BME280;69094;48.154;11.536;2024-01-15T05:16:49;94265.59;;;-2.03;70.65
79612;BME280;69094;48.154;11.536;2024-01-15T05:19:15;94263.94;;;-1.99;70.58
79612;BME280;69094;48.154;11.536;2024-01-15T05:21:40;94262.91;;;-1.98;71.08
79612;BME280;69094;48.154;11.536;2024-01-15T05:24:06;94265.25;;;-1.97;70.44
79612;BME280;69094;48.154;11.536;2024-01-15T05:26:34;94258.56;;;-1.94;71.03
79612;BME280;69094;48.154;11.536;2024-01-15T05:28:59;94251.19;;;-2.02;70.49
79612;BME280;69094;48.154;11.536;2024-01-15T05:31:25;94259.66;;;-1.95;69.74
79612;BME280;69094;48.154;11.536;2024-01-15T05:33:50;94272.59;;;-2.12;70.80
79612;BME280;69094;48.154;11.536;2024-01-15T05:36:15;94262.72;;;-2.12;71.16
79612;BME280;69094;48.154;11.536;2024-01-15T05:38:41;94257.72;;;-2.19;71.29
79612;BME280;69094;48.154;11.536;2024-01-15T05:41:06;94266.22;;;-2.22;71.14
79612;BME280;69094;48.154;11.536;2024-01-15T05:43:32;94247.06;;;-2.24;71.23
79612;BME280;69094;48.154;11.536;2024-01-15T05:45:57;94264.63;;;-2.18;70.83
79612;BME280;69094;48.154;11.536;2024-01-15T05:48:23;94252.91;;;-2.22;71.29
79612;BME280;69094;48.154;11.536;2024-01-15T05:50:48;94255.00;;;-1.79;79.47
79612;BME280;69094;48.154;11.536;2024-01-15T05:53:14;94256.59;;;-0.29;77.35
79612;BME280;69094;48.154;11.536;2024-01-15T05:55:39;94259.84;;;-0.13;69.84
79612;BME280;69094;48.154;11.536;2024-01-15T05:58:05;94254.69;;;-0.28;70.50
79612;BME280;69094;48.154;11.536;2024-01-15T06:00:30;94263.47;;;-0.90;65.91
79612;BME280;69094;48.154;11.536;2024-01-15T06:02:58;94249.38;;;-1.43;67.84
79612;BME280;69094;48.154;11.536;2024-01-15T06:05:23;94251.44;;;-1.69;68.36
79612;BME280;69094;48.154;11.536;2024-01-15T06:07:48;94247.34;;;-1.86;68.71
79612;BME280;69094;48.154;11.536;2024-01-15T06:10:14;94251.44;;;-1.99;69.32
79612;BME280;69094;48.154;11.536;2024-01-15T06:12:39;94244.81;;;-2.06;69.96
79612;BME280;69094;48.154;11.536;2024-01-15T06:15:05;94249.16;;;-2.15;69.71
79612;BME280;69094;48.154;11.536;2024-01-15T06:17:30;94252.38;;;-2.19;70.03
79612;BME280;69094;48.154;11.536;2024-01-15T06:19:56;94255.00;;;-2.13;70.06
79612;BME280;69094;48.154;11.536;2024-01-15T06:22:22;94253.69;;;-2.16;69.64
79612;BME280;69094;48.154;11.536;2024-01-15T06:24:47;94252.69;;;-2.25;69.80
79612;BME280;69094;48.154;11.536;2024-01-15T06:27:12;94257.72;;;-2.19;69.53
79612;BME280;69094;48.154;11.536;2024-01-15T06:29:38;94259.25;;;-2.12;68.93
79612;BME280;69094;48.154;11.536;2024-01-15T06:32:04;94258.16;;;-2.11;70.05
79612;BME280;69094;48.154;11.536;2024-01-15T06:34:29;94253.41;;;-2.14;69.79
79612;BME280;69094;48.154;11.536;2024-01-15T06:36:55;94256.63;;;-2.18;70.25
79612;BME280;69094;48.154;11.536;2024-01-15T06:39:20;94261.69;;;-2.16;69.68
79612;BME280;69094;48.154;11.536;2024-01-15T06:41:46;94257.41;;;-2.17;70.06
79612;BME280;69094;48.154;11.536;2024-01-15T06:44:12;94257.41;;;-2.17;69.62
79612;BME280;69094;48.154;11.536;2024-01-15T06:46:44;94261.69;;;-2.16;70.12
79612;BME280;69094;48.154;11.536;2024-01-15T06:49:09;94265.41;;;-2.17;70.48
79612;BME280;69094;48.154;11.536;2024-01-15T06:51:35;94257.41;;;-2.17;70.26
79612;BME280;69094;48.154;11.536;2024-01-15T06:54:00;94257.13;;;-2.10;69.77
79612;BME280;69094;48.154;11.536;2024-01-15T06:56:26;94259.28;;;-2.18;70.27
79612;BME280;69094;48.154;11.536;2024-01-15T06:58:51;94259.88;;;-2.26;70.53
79612;BME280;69094;48.154;11.536;2024-01-15T07:01:16;94267.78;;;-2.10;70.50
79612;BME280;69094;48.154;11.536;2024-01-15T07:03:42;94263.47;;;-2.06;69.43
79612;BME280;69094;48.154;11.536;2024-01-15T07:06:07;94271.94;;;-1.99;70.04
79612;BME280;69094;48.154;11.536;2024-01-15T07:08:33;94257.63;;;-2.08;69.86
79612;BME280;69094;48.154;11.536;2024-01-15T07:10:58;94266.44;;;-2.08;70.09
79612;BME280;69094;48.154;11.536;2024-01-15T07:13:23;94246.16;;;-2.09;70.33
79612;BME280;69094;48.154;11.536;2024-01-15T07:15:49;94228.03;;;-2.07;70.30
79612;BME280;69094;48.154;11.536;2024-01-15T07:18:14;94229.84;;;-2.02;70.10
79612;BME280;69094;48.154;11.536;2024-01-15T07:20:39;94229.28;;;-1.99;70.34
79612;BME280;69094;48.154;11.536;2024-01-15T07:23:05;94236.16;;;-1.88;70.60
79612;BME280;69094;48.154;11.536;2024-01-15T07:25:30;94228.50;;;-2.00;70.36
79612;BME280;69094;48.154;11.536;2024-01-15T07:27:55;94225.59;;;-2.03;70.61
79612;BME280;69094;48.154;11.536;2024-01-15T07:30:21;94221.38;;;-2.09;70.99
79612;BME280;69094;48.154;11.536;2024-01-15T07:32:47;94234.88;;;-1.96;70.59
79612;BME280;69094;48.154;11.536;2024-01-15T07:35:14;94233.00;;;-1.95;70.75
79612;BME280;69094;48.154;11.536;2024-01-15T07:37:39;94243.38;;;-1.88;70.92
79612;BME280;69094;48.154;11.536;2024-01-15T07:40:06;94214.13;;;-1.99;70.79
79612;BME280;69094;48.154;11.536;2024-01-15T07:42:34;94237.72;;;-1.87;71.24
79612;BME280;69094;48.154;11.536;2024-01-15T07:44:59;94249.53;;;-1.93;71.81
79612;BME280;69094;48.154;11.536;2024-01-15T07:47:25;94239.59;;;-1.87;70.93
79612;BME280;69094;48.154;11.536;2024-01-15T07:49:51;94226.28;;;-1.87;71.53
79612;BME280;69094;48.154;11.536;2024-01-15T07:52:16;94242.03;;;-1.91;71.90
79612;BME280;69094;48.154;11.536;2024-01-15T07:54:41;94244.09;;;-1.83;71.51
79612;BME280;69094;48.154;11.536;2024-01-15T07:57:07;94237.47;;;-1.85;71.64
79612;BME280;69094;48.154;11.536;2024-01-15T07:59:32;94231.00;;;-1.79;71.18
79612;BME280;69094;48.154;11.536;2024-01-15T08:01:59;94226.28;;;-1.87;72.13
79612;BME280;69094;48.154;11.536;2024-01-15T08:04:24;94215.88;;;-1.84;71.77
79612;BME280;69094;48.154;11.536;2024-01-15T08:06:50;94197.72;;;-1.87;71.68
79612;BME280;69094;48.154;11.536;2024-01-15T08:09:15;94221.38;;;-1.75;71.67
79612;BME280;69094;48.154;11.536;2024-01-15T08:11:42;94221.38;;;-1.75;71.21
79612;BME280;69094;48.154;11.536;2024-01-15T08:14:08;94214.16;;;-1.75;71.64
79612;BME280;69094;48.154;11.536;2024-01-15T08:16:34;94207.25;;;-1.76;71.74
79612;BME280;69094;48.154;11.536;2024-01-15T08:19:00;94205.63;;;-1.77;70.58
79612;BME280;69094;48.154;11.536;2024-01-15T08:21:25;94212.84;;;-1.77;71.39
79612;BME280;69094;48.154;11.536;2024-01-15T08:23:52;94202.97;;;-1.77;71.84
79612;BME280;69094;48.154;11.536;2024-01-15T08:26:17;94213.59;;;-1.71;71.24
79612;BME280;69094;48.154;11.536;2024-01-15T08:28:43;94211.97;;;-1.67;70.46
79612;BME280;69094;48.154;11.536;2024-01-15T08:31:08;94213.06;;;-1.68;70.71
79612;BME280;69094;48.154;11.536;2024-01-15T08:33:34;94211.81;;;-1.52;71.61
79612;BME280;69094;48.154;11.536;2024-01-15T08:35:59;94187.00;;;-1.53;70.20
79612;BME280;69094;48.154;11.536;2024-01-15T08:38:25;94215.31;;;-1.57;69.24
79612;BME280;69094;48.154;11.536;2024-01-15T08:40:50;94230.88;;;-1.64;69.53
79612;BME280;69094;48.154;11.536;2024-01-15T08:43:16;94216.19;;;-1.61;69.45
79612;BME280;69094;48.154;11.536;2024-01-15T08:45:41;94208.69;;;-1.59;69.33
79612;BME280;69094;48.154;11.536;2024-01-15T08:48:07;94214.06;;;-1.64;69.47
79612;BME280;69094;48.154;11.536;2024-01-15T08:50:32;94205.59;;;-1.42;72.15
79612;BME280;69094;48.154;11.536;2024-01-15T08:52:58;94211.28;;;-1.49;69.27
79612;BME280;69094;48.154;11.536;2024-01-15T08:55:24;94214.00;;;-1.59;70.23
79612;BME280;69094;48.154;11.536;2024-01-15T08:57:50;94205.00;;;-1.63;70.35
79612;BME280;69094;48.154;11.536;2024-01-15T09:00:15;94227.81;;;-1.52;70.75
79612;BME280;69094;48.154;11.536;2024-01-15T09:02:42;94218.75;;;-1.51;70.42
79612;BME280;69094;48.154;11.536;2024-01-15T09:05:08;94222.91;;;-1.40;70.28
79612;BME280;69094;48.154;11.536;2024-01-15T09:07:33;94221.59;;;-1.42;70.46
79612;BME280;69094;48.154;11.536;2024-01-15T09:09:58;94212.22;;;-1.40;70.16
79612;BME280;69094;48.154;11.536;2024-01-15T09:12:27;94211.44;;;-1.40;70.19
79612;BME280;69094;48.154;11.536;2024-01-15T09:14:54;94213.66;;;-1.47;70.02
79612;BME280;69094;48.154;11.536;2024-01-15T09:17:21;94226.47;;;-1.49;70.38
79612;BME280;69094;48.154;11.536;2024-01-15T09:19:48;94227.19;;;-1.39;70.04
79612;BME280;69094;48.154;11.536;2024-01-15T09:22:14;94229.22;;;-1.31;70.22
79612;BME280;69094;48.154;11.536;2024-01-15T09:24:43;94225.72;;;-1.26;70.07
79612;BME280;69094;48.154;11.536;2024-01-15T09:27:08;94221.72;;;-1.28;69.89
79612;BME280;69094;48.154;11.536;2024-01-15T09:29:34;94237.91;;;-1.20;69.75
79612;BME280;69094;48.154;11.536;2024-01-15T09:32:02;94224.56;;;-0.96;71.71
79612;BME280;69094;48.154;11.536;2024-01-15T09:34:28;94221.13;;;-0.96;68.58
79612;BME280;69094;48.154;11.536;2024-01-15T09:36:53;94236.88;;;-1.00;68.47
79612;BME280;69094;48.154;11.536;2024-01-15T09:39:19;94235.25;;;-0.96;68.17
79612;BME280;69094;48.154;11.536;2024-01-15T09:41:44;94237.66;;;-0.94;67.91
79612;BME280;69094;48.154;11.536;2024-01-15T09:44:10;94232.91;;;-1.02;68.09
79612;BME280;69094;48.154;11.536;2024-01-15T09:46:37;94228.34;;;-0.97;67.75
79612;BME280;69094;48.154;11.536;2024-01-15T09:49:03;94242.13;;;-0.90;68.00
79612;BME280;69094;48.154;11.536;2024-01-15T09:51:31;94234.91;;;-0.89;67.42
79612;BME280;69094;48.154;11.536;2024-01-15T09:53:57;94224.91;;;-0.78;66.99
79612;BME280;69094;48.154;11.536;2024-01-15T09:56:23;94225.09;;;-0.75;66.19
79612;BME280;69094;48.154;11.536;2024-01-15T09:58:49;94236.09;;;-0.76;66.62
79612;BME280;69094;48.154;11.536;2024-01-15T10:01:17;94239.56;;;-0.76;65.73
79612;BME280;69094;48.154;11.536;2024-01-15T10:03:42;94216.81;;;-0.73;65.46
79612;BME280;69094;48.154;11.536;2024-01-15T10:06:08;94220.97;;;-0.62;65.20
79612;BME280;69094;48.154;11.536;2024-01-15T10:08:36;94223.97;;;-0.69;65.47
79612;BME280;69094;48.154;11.536;2024-01-15T10:11:02;94212.41;;;-0.83;65.76
79612;BME280;69094;48.154;11.536;2024-01-15T10:13:30;94199.91;;;-0.88;65.09
79612;BME280;69094;48.154;11.536;2024-01-15T10:15:55;94205.34;;;-0.74;65.39
79612;BME280;69094;48.154;11.536;2024-01-15T10:18:20;94209.00;;;-0.70;65.91
79612;BME280;69094;48.154;11.536;2024-01-15T10:20:47;94210.34;;;-0.67;65.73
79612;BME280;69094;48.154;11.536;2024-01-15T10:23:12;94197.91;;;-0.58;64.72
79612;BME280;69094;48.154;11.536;2024-01-15T10:25:41;94181.16;;;-0.63;64.41
79612;BME280;69094;48.154;11.536;2024-01-15T10:28:07;94189.25;;;-0.69;64.81
79612;BME280;69094;48.154;11.536;2024-01-15T10:30:33;94177.53;;;-0.73;65.50
79612;BME280;69094;48.154;11.536;2024-01-15T10:33:00;94179.28;;;-0.63;65.02
79612;BME280;69094;48.154;11.536;2024-01-15T10:35:33;94173.94;;;-0.63;64.79
79612;BME280;69094;48.154;11.536;2024-01-15T10:38:00;94169.19;;;-0.66;64.81
79612;BME280;69094;48.154;11.536;2024-01-15T10:40:25;94172.78;;;-0.57;65.58
79612;BME280;69094;48.154;11.536;2024-01-15T10:42:51;94165.69;;;-0.48;64.80
79612;BME280;69094;48.154;11.536;2024-01-15T10:45:17;94163.69;;;-0.56;65.63
79612;BME280;69094;48.154;11.536;2024-01-15T10:47:43;94167.00;;;-0.45;64.73
79612;BME280;69094;48.154;11.536;2024-01-15T10:50:09;94179.66;;;-0.32;64.43
79612;BME280;69094;48.154;11.536;2024-01-15T10:52:36;94168.56;;;-0.25;64.54
79612;BME280;69094;48.154;11.536;2024-01-15T10:55:03;94170.72;;;-0.08;63.94
79612;BME280;69094;48.154;11.536;2024-01-15T10:57:29;94153.97;;;-0.14;64.28
79612;BME280;69094;48.154;11.536;2024-01-15T10:59:55;94150.19;;;-0.13;64.69
79612;BME280;69094;48.154;11.536;2024-01-15T11:02:20;94158.97;;;0.07;64.38
79612;BME280;69094;48.154;11.536;2024-01-15T11:04:46;94151.59;;;0.17;64.07
79612;BME280;69094;48.154;11.536;2024-01-15T11:07:13;94157.91;;;0.08;64.59
79612;BME280;69094;48.154;11.536;2024-01-15T11:09:39;94155.25;;;0.21;64.35
79612;BME280;69094;48.154;11.536;2024-01-15T11:12:10;94161.53;;;0.31;64.07
79612;BME280;69094;48.154;11.536;2024-01-15T11:14:42;94142.41;;;0.37;64.19
79612;BME280;69094;48.154;11.536;2024-01-15T11:17:11;94137.13;;;0.32;64.75
79612;BME280;69094;48.154;11.536;2024-01-15T11:19:46;94140.59;;;0.19;64.54
79612;BME280;69094;48.154;11.536;2024-01-15T11:24:57;94154.34;;;0.12;65.07
79612;BME280;69094;48.154;11.536;2024-01-15T11:27:41;94154.59;;;-0.03;65.55
79612;BME280;69094;48.154;11.536;2024-01-15T11:30:11;94141.31;;;-0.08;65.74
79612;BME280;69094;48.154;11.536;2024-01-15T11:32:37;94145.25;;;-0.19;65.94
79612;BME280;69094;48.154;11.536;2024-01-15T11:35:07;94142.84;;;-0.21;65.70
79612;BME280;69094;48.154;11.536;2024-01-15T11:40:20;94127.31;;;-0.19;65.54
79612;BME280;69094;48.154;11.536;2024-01-15T11:42:46;94137.47;;;0.58;64.07
79612;BME280;69094;48.154;11.536;2024-01-15T11:45:13;94135.06;;;1.62;60.27
79612;BME280;69094;48.154;11.536;2024-01-15T11:50:29;94132.56;;;3.39;53.60
79612;BME280;69094;48.154;11.536;2024-01-15T11:53:01;94127.13;;;4.52;54.09
79612;BME280;69094;48.154;11.536;2024-01-15T11:57:55;94120.56;;;4.06;51.12
79612;BME280;69094;48.154;11.536;2024-01-15T12:00:23;94115.50;;;3.79;51.30
79612;BME280;69094;48.154;11.536;2024-01-15T12:02:49;94122.06;;;2.63;53.98
79612;BME280;69094;48.154;11.536;2024-01-15T12:05:17;94114.22;;;1.59;57.42
79612;BME280;69094;48.154;11.536;2024-01-15T12:07:45;94114.63;;;2.51;54.69
79612;BME280;69094;48.154;11.536;2024-01-15T12:10:12;94113.06;;;2.28;55.55
79612;BME280;69094;48.154;11.536;2024-01-15T12:15:28;94107.19;;;2.97;54.08
79612;BME280;69094;48.154;11.536;2024-01-15T12:17:58;94096.34;;;3.98;50.95
79612;BME280;69094;48.154;11.536;2024-01-15T12:20:25;94090.09;;;4.32;50.34
79612;BME280;69094;48.154;11.536;2024-01-15T12:22:51;94075.88;;;4.70;48.53
79612;BME280;69094;48.154;11.536;2024-01-15T12:25:16;94067.16;;;4.64;48.63
79612;BME280;69094;48.154;11.536;2024-01-15T12:27:42;94047.22;;;5.58;47.07
79612;BME280;69094;48.154;11.536;2024-01-15T12:30:09;94027.38;;;5.96;44.51
79612;BME280;69094;48.154;11.536;2024-01-15T12:32:35;94022.13;;;5.99;44.30
79612;BME280;69094;48.154;11.536;2024-01-15T12:35:00;94033.22;;;5.65;45.30
79612;BME280;69094;48.154;11.536;2024-01-15T12:37:26;94045.38;;;5.08;46.07
79612;BME280;69094;48.154;11.536;2024-01-15T12:39:52;94046.63;;;5.31;46.00
79612;BME280;69094;48.154;11.536;2024-01-15T12:42:20;94051.59;;;5.50;45.55
79612;BME280;69094;48.154;11.536;2024-01-15T12:44:46;94039.91;;;4.95;47.16
79612;BME280;69094;48.154;11.536;2024-01-15T12:47:11;94052.84;;;5.32;46.83
79612;BME280;69094;48.154;11.536;2024-01-15T12:49:37;94067.44;;;5.94;45.53
79612;BME280;69094;48.154;11.536;2024-01-15T12:52:03;94049.91;;;6.00;45.53
79612;BME280;69094;48.154;11.536;2024-01-15T12:54:28;94052.53;;;6.21;45.41
79612;BME280;69094;48.154;11.536;2024-01-15T12:56:54;94039.78;;;5.97;45.46